sensor_id;sensor_type;location;lat;lon;timestamp;P1;durP1;ratioP1;P2;durP2;ratioP2
25667;SDS011;18003;-33.830;151.202;2023-09-19T00:01:00;8.08;;;7.37;;
25667;SDS011;18003;-33.830;151.202;2023-09-19T00:03:31;8.10;;;7.50;;
25667;SDS011;18003;-33.830;151.202;2023-09-19T00:06:02;7.95;;;7.35;;
25667;SDS011;18003;-33.830;151.202;2023-09-19T00:08:33;8.03;;;7.33;;
25667;SDS011;18003;-33.830;151.202;2023-09-19T00:11:04;8.65;;;7.90;;
25667;SDS011;18003;-33.830;151.202;2023-09-19T00:13:34;11.78;;;7.87;;
25667;SDS011;18003;-33.830;151.202;2023-09-19T00:16:09;9.40;;;7.55;;
25667;SDS011;18003;-33.830;151.202;2023-09-19T00:18:39;9.60;;;8.60;;
25667;SDS011;18003;-33.830;151.202;2023-09-19T00:21:10;9.20;;;8.35;;
25667;SDS011;18003;-33.830;151.202;2023-09-19T00:23:41;9.45;;;8.55;;
25667;SDS011;18003;-33.830;151.202;2023-09-19T00:26:12;9.10;;;8.28;;
25667;SDS011;18003;-33.830;151.202;2023-09-19T00:28:42;9.35;;;8.45;;
25667;SDS011;18003;-33.830;151.202;2023-09-19T00:31:12;9.35;;;8.45;;
25667;SDS011;18003;-33.830;151.202;2023-09-19T00:33:42;10.25;;;9.30;;
25667;SDS011;18003;-33.830;151.202;2023-09-19T00:36:12;9.90;;;9.20;;
25667;SDS011;18003;-33.830;151.202;2023-09-19T00:38:42;10.43;;;9.00;;
25667;SDS011;18003;-33.830;151.202;2023-09-19T00:41:13;14.33;;;8.50;;
25667;SDS011;18003;-33.830;151.202;2023-09-19T00:43:43;13.18;;;9.10;;
25667;SDS011;18003;-33.830;151.202;2023-09-19T00:46:21;14.58;;;8.35;;
25667;SDS011;18003;-33.830;151.202;2023-09-19T00:48:46;12.13;;;8.05;;
25667;SDS011;18003;-33.830;151.202;2023-09-19T00:51:16;12.50;;;8.30;;
25667;SDS011;18003;-33.830;151.202;2023-09-19T00:53:49;8.78;;;7.70;;
25667;SDS011;18003;-33.830;151.202;2023-09-19T00:56:19;10.15;;;8.15;;
25667;SDS011;18003;-33.830;151.202;2023-09-19T00:58:49;8.55;;;7.58;;
25667;SDS011;18003;-33.830;151.202;2023-09-19T01:01:20;8.65;;;7.90;;
25667;SDS011;18003;-33.830;151.202;2023-09-19T01:03:51;8.50;;;7.70;;
25667;SDS011;18003;-33.830;151.202;2023-09-19T01:06:22;10.43;;;7.25;;
25667;SDS011;18003;-33.830;151.202;2023-09-19T01:08:56;8.15;;;7.45;;
25667;SDS011;18003;-33.830;151.202;2023-09-19T01:11:32;9.28;;;8.38;;
25667;SDS011;18003;-33.830;151.202;2023-09-19T01:14:15;9.68;;;8.20;;
25667;SDS011;18003;-33.830;151.202;2023-09-19T01:16:48;10.05;;;8.08;;
25667;SDS011;18003;-33.830;151.202;2023-09-19T01:24:55;7.67;;;6.87;;
25667;SDS011;18003;-33.830;151.202;2023-09-19T01:30:39;7.95;;;7.35;;
25667;SDS011;18003;-33.830;151.202;2023-09-19T01:33:12;9.78;;;8.60;;
25667;SDS011;18003;-33.830;151.202;2023-09-19T01:35:43;8.10;;;7.42;;
25667;SDS011;18003;-33.830;151.202;2023-09-19T01:38:14;8.28;;;7.58;;
25667;SDS011;18003;-33.830;151.202;2023-09-19T01:40:48;8.15;;;7.40;;
25667;SDS011;18003;-33.830;151.202;2023-09-19T01:43:33;7.67;;;6.97;;
25667;SDS011;18003;-33.830;151.202;2023-09-19T01:46:14;13.30;;;8.75;;
25667;SDS011;18003;-33.830;151.202;2023-09-19T01:48:54;16.35;;;10.32;;
25667;SDS011;18003;-33.830;151.202;2023-09-19T01:51:34;18.15;;;10.10;;
25667;SDS011;18003;-33.830;151.202;2023-09-19T01:54:10;13.83;;;8.28;;
25667;SDS011;18003;-33.830;151.202;2023-09-19T01:56:53;9.58;;;8.20;;
25667;SDS011;18003;-33.830;151.202;2023-09-19T01:59:42;8.33;;;7.50;;
25667;SDS011;18003;-33.830;151.202;2023-09-19T02:02:15;8.30;;;7.50;;
25667;SDS011;18003;-33.830;151.202;2023-09-19T02:04:48;16.87;;;10.03;;
25667;SDS011;18003;-33.830;151.202;2023-09-19T02:07:19;12.55;;;9.73;;
25667;SDS011;18003;-33.830;151.202;2023-09-19T02:09:50;9.30;;;8.58;;
25667;SDS011;18003;-33.830;151.202;2023-09-19T02:12:20;8.93;;;8.08;;
25667;SDS011;18003;-33.830;151.202;2023-09-19T02:14:51;9.30;;;8.40;;
25667;SDS011;18003;-33.830;151.202;2023-09-19T02:17:22;9.15;;;7.75;;
25667;SDS011;18003;-33.830;151.202;2023-09-19T02:19:58;11.12;;;8.05;;
25667;SDS011;18003;-33.830;151.202;2023-09-19T02:22:23;11.30;;;9.18;;
25667;SDS011;18003;-33.830;151.202;2023-09-19T02:24:53;14.55;;;8.98;;
25667;SDS011;18003;-33.830;151.202;2023-09-19T02:27:24;9.00;;;8.30;;
25667;SDS011;18003;-33.830;151.202;2023-09-19T02:29:55;8.90;;;8.00;;
25667;SDS011;18003;-33.830;151.202;2023-09-19T02:32:25;15.13;;;9.03;;
25667;SDS011;18003;-33.830;151.202;2023-09-19T02:34:56;9.78;;;8.85;;
25667;SDS011;18003;-33.830;151.202;2023-09-19T02:37:26;14.75;;;8.68;;
25667;SDS011;18003;-33.830;151.202;2023-09-19T02:39:56;15.53;;;9.55;;
25667;SDS011;18003;-33.830;151.202;2023-09-19T02:42:26;10.63;;;8.30;;
25667;SDS011;18003;-33.830;151.202;2023-09-19T02:44:57;14.97;;;9.13;;
25667;SDS011;18003;-33.830;151.202;2023-09-19T02:47:27;25.60;;;11.00;;
25667;SDS011;18003;-33.830;151.202;2023-09-19T02:49:57;14.70;;;9.90;;
25667;SDS011;18003;-33.830;151.202;2023-09-19T02:52:27;23.40;;;10.60;;
25667;SDS011;18003;-33.830;151.202;2023-09-19T02:54:58;30.52;;;14.23;;
25667;SDS011;18003;-33.830;151.202;2023-09-19T02:57:28;17.45;;;10.95;;
25667;SDS011;18003;-33.830;151.202;2023-09-19T02:59:59;11.65;;;8.35;;
25667;SDS011;18003;-33.830;151.202;2023-09-19T03:02:30;15.90;;;8.50;;
25667;SDS011;18003;-33.830;151.202;2023-09-19T03:05:01;10.90;;;9.80;;
25667;SDS011;18003;-33.830;151.202;2023-09-19T03:07:31;11.70;;;10.50;;
25667;SDS011;18003;-33.830;151.202;2023-09-19T03:10:01;10.70;;;9.68;;
25667;SDS011;18003;-33.830;151.202;2023-09-19T03:12:32;10.20;;;9.40;;
25667;SDS011;18003;-33.830;151.202;2023-09-19T03:15:03;11.38;;;10.38;;
25667;SDS011;18003;-33.830;151.202;2023-09-19T03:17:34;11.70;;;10.53;;
25667;SDS011;18003;-33.830;151.202;2023-09-19T03:20:05;12.05;;;11.00;;
25667;SDS011;18003;-33.830;151.202;2023-09-19T03:22:37;11.28;;;10.10;;
25667;SDS011;18003;-33.830;151.202;2023-09-19T03:25:07;10.72;;;9.83;;
25667;SDS011;18003;-33.830;151.202;2023-09-19T03:27:38;10.70;;;9.90;;
25667;SDS011;18003;-33.830;151.202;2023-09-19T03:30:08;10.98;;;10.05;;
25667;SDS011;18003;-33.830;151.202;2023-09-19T03:35:12;12.15;;;10.63;;
25667;SDS011;18003;-33.830;151.202;2023-09-19T03:37:44;18.05;;;11.93;;
25667;SDS011;18003;-33.830;151.202;2023-09-19T03:40:25;12.73;;;11.22;;
25667;SDS011;18003;-33.830;151.202;2023-09-19T03:42:55;12.58;;;11.20;;
25667;SDS011;18003;-33.830;151.202;2023-09-19T03:45:27;12.90;;;11.30;;
25667;SDS011;18003;-33.830;151.202;2023-09-19T03:47:57;12.10;;;11.15;;
25667;SDS011;18003;-33.830;151.202;2023-09-19T03:50:33;12.93;;;11.78;;
25667;SDS011;18003;-33.830;151.202;2023-09-19T03:53:01;13.00;;;11.75;;
25667;SDS011;18003;-33.830;151.202;2023-09-19T03:58:01;15.30;;;10.32;;
25667;SDS011;18003;-33.830;151.202;2023-09-19T04:00:32;16.00;;;11.10;;
25667;SDS011;18003;-33.830;151.202;2023-09-19T04:03:03;10.45;;;9.45;;
25667;SDS011;18003;-33.830;151.202;2023-09-19T04:05:34;10.10;;;9.10;;
25667;SDS011;18003;-33.830;151.202;2023-09-19T04:08:04;10.68;;;9.20;;
25667;SDS011;18003;-33.830;151.202;2023-09-19T04:10:38;9.63;;;8.73;;
25667;SDS011;18003;-33.830;151.202;2023-09-19T04:13:10;9.38;;;8.50;;
25667;SDS011;18003;-33.830;151.202;2023-09-19T04:15:40;8.83;;;8.03;;
25667;SDS011;18003;-33.830;151.202;2023-09-19T04:18:11;24.67;;;9.45;;
25667;SDS011;18003;-33.830;151.202;2023-09-19T04:20:41;11.12;;;8.50;;
25667;SDS011;18003;-33.830;151.202;2023-09-19T04:23:13;14.60;;;8.98;;
25667;SDS011;18003;-33.830;151.202;2023-09-19T04:25:43;8.60;;;7.90;;
25667;SDS011;18003;-33.830;151.202;2023-09-19T04:28:19;7.83;;;7.22;;
25667;SDS011;18003;-33.830;151.202;2023-09-19T04:30:49;8.10;;;7.40;;
25667;SDS011;18003;-33.830;151.202;2023-09-19T04:33:16;9.78;;;8.00;;
25667;SDS011;18003;-33.830;151.202;2023-09-19T04:35:50;9.05;;;8.00;;
25667;SDS011;18003;-33.830;151.202;2023-09-19T04:38:20;9.80;;;8.80;;
25667;SDS011;18003;-33.830;151.202;2023-09-19T04:40:50;9.20;;;8.30;;
25667;SDS011;18003;-33.830;151.202;2023-09-19T04:43:22;9.95;;;8.53;;
25667;SDS011;18003;-33.830;151.202;2023-09-19T04:45:52;10.08;;;8.80;;
25667;SDS011;18003;-33.830;151.202;2023-09-19T04:48:22;10.13;;;9.23;;
25667;SDS011;18003;-33.830;151.202;2023-09-19T04:50:53;10.28;;;9.33;;
25667;SDS011;18003;-33.830;151.202;2023-09-19T04:53:24;11.38;;;10.15;;
25667;SDS011;18003;-33.830;151.202;2023-09-19T04:55:58;10.08;;;9.28;;
25667;SDS011;18003;-33.830;151.202;2023-09-19T04:58:30;9.60;;;8.75;;
25667;SDS011;18003;-33.830;151.202;2023-09-19T05:01:08;9.25;;;8.65;;
25667;SDS011;18003;-33.830;151.202;2023-09-19T05:03:37;9.70;;;8.95;;
25667;SDS011;18003;-33.830;151.202;2023-09-19T05:06:07;9.73;;;8.83;;
25667;SDS011;18003;-33.830;151.202;2023-09-19T05:08:37;14.43;;;10.20;;
25667;SDS011;18003;-33.830;151.202;2023-09-19T05:11:08;13.60;;;10.23;;
25667;SDS011;18003;-33.830;151.202;2023-09-19T05:13:44;14.43;;;11.78;;
25667;SDS011;18003;-33.830;151.202;2023-09-19T05:16:15;18.25;;;12.82;;
25667;SDS011;18003;-33.830;151.202;2023-09-19T05:18:46;18.55;;;11.90;;
25667;SDS011;18003;-33.830;151.202;2023-09-19T05:21:16;17.95;;;12.10;;
25667;SDS011;18003;-33.830;151.202;2023-09-19T05:23:46;16.15;;;12.70;;
25667;SDS011;18003;-33.830;151.202;2023-09-19T05:26:17;18.60;;;13.18;;
25667;SDS011;18003;-33.830;151.202;2023-09-19T05:28:47;15.18;;;12.30;;
25667;SDS011;18003;-33.830;151.202;2023-09-19T05:31:17;16.82;;;12.98;;
25667;SDS011;18003;-33.830;151.202;2023-09-19T05:33:47;21.30;;;13.05;;
25667;SDS011;18003;-33.830;151.202;2023-09-19T05:36:18;17.62;;;13.00;;
25667;SDS011;18003;-33.830;151.202;2023-09-19T05:38:48;19.10;;;13.00;;
25667;SDS011;18003;-33.830;151.202;2023-09-19T05:41:19;19.23;;;12.85;;
25667;SDS011;18003;-33.830;151.202;2023-09-19T05:43:50;20.33;;;12.63;;
25667;SDS011;18003;-33.830;151.202;2023-09-19T05:46:20;14.40;;;12.33;;
25667;SDS011;18003;-33.830;151.202;2023-09-19T05:48:50;16.23;;;12.60;;
25667;SDS011;18003;-33.830;151.202;2023-09-19T05:51:20;19.40;;;11.80;;
25667;SDS011;18003;-33.830;151.202;2023-09-19T05:53:50;18.55;;;11.88;;
25667;SDS011;18003;-33.830;151.202;2023-09-19T05:56:21;16.93;;;11.38;;
25667;SDS011;18003;-33.830;151.202;2023-09-19T05:58:52;16.57;;;11.12;;
25667;SDS011;18003;-33.830;151.202;2023-09-19T06:01:22;21.70;;;11.12;;
25667;SDS011;18003;-33.830;151.202;2023-09-19T06:03:52;20.32;;;11.05;;
25667;SDS011;18003;-33.830;151.202;2023-09-19T06:06:22;16.37;;;11.00;;
25667;SDS011;18003;-33.830;151.202;2023-09-19T06:08:52;18.35;;;11.12;;
25667;SDS011;18003;-33.830;151.202;2023-09-19T06:11:22;20.20;;;10.55;;
25667;SDS011;18003;-33.830;151.202;2023-09-19T06:13:53;17.73;;;10.25;;
25667;SDS011;18003;-33.830;151.202;2023-09-19T06:16:23;15.48;;;10.13;;
25667;SDS011;18003;-33.830;151.202;2023-09-19T06:18:53;16.30;;;10.38;;
25667;SDS011;18003;-33.830;151.202;2023-09-19T06:21:23;17.52;;;10.03;;
25667;SDS011;18003;-33.830;151.202;2023-09-19T06:23:53;17.30;;;10.20;;
25667;SDS011;18003;-33.830;151.202;2023-09-19T06:26:24;19.30;;;9.57;;
25667;SDS011;18003;-33.830;151.202;2023-09-19T06:28:54;19.70;;;10.05;;
25667;SDS011;18003;-33.830;151.202;2023-09-19T06:31:26;18.87;;;10.60;;
25667;SDS011;18003;-33.830;151.202;2023-09-19T06:33:56;21.50;;;10.15;;
25667;SDS011;18003;-33.830;151.202;2023-09-19T06:36:27;19.70;;;9.35;;
25667;SDS011;18003;-33.830;151.202;2023-09-19T06:38:57;18.23;;;9.48;;
25667;SDS011;18003;-33.830;151.202;2023-09-19T06:41:28;16.77;;;9.50;;
25667;SDS011;18003;-33.830;151.202;2023-09-19T06:46:27;17.82;;;9.80;;
25667;SDS011;18003;-33.830;151.202;2023-09-19T06:48:58;21.12;;;9.53;;
25667;SDS011;18003;-33.830;151.202;2023-09-19T06:51:30;16.15;;;9.88;;
25667;SDS011;18003;-33.830;151.202;2023-09-19T06:54:01;22.90;;;9.18;;
25667;SDS011;18003;-33.830;151.202;2023-09-19T06:56:32;21.82;;;9.98;;
25667;SDS011;18003;-33.830;151.202;2023-09-19T06:59:02;19.70;;;9.83;;
25667;SDS011;18003;-33.830;151.202;2023-09-19T07:01:33;21.75;;;9.93;;
25667;SDS011;18003;-33.830;151.202;2023-09-19T07:04:04;20.55;;;9.70;;
25667;SDS011;18003;-33.830;151.202;2023-09-19T07:06:34;17.55;;;9.25;;
25667;SDS011;18003;-33.830;151.202;2023-09-19T07:09:05;15.72;;;9.38;;
25667;SDS011;18003;-33.830;151.202;2023-09-19T07:11:34;19.92;;;9.98;;
25667;SDS011;18003;-33.830;151.202;2023-09-19T07:14:04;17.30;;;9.83;;
25667;SDS011;18003;-33.830;151.202;2023-09-19T07:16:34;17.77;;;9.60;;
25667;SDS011;18003;-33.830;151.202;2023-09-19T07:19:05;20.10;;;9.25;;
25667;SDS011;18003;-33.830;151.202;2023-09-19T07:21:35;22.62;;;9.85;;
25667;SDS011;18003;-33.830;151.202;2023-09-19T07:24:05;18.85;;;9.48;;
25667;SDS011;18003;-33.830;151.202;2023-09-19T07:26:36;21.00;;;10.13;;
25667;SDS011;18003;-33.830;151.202;2023-09-19T07:29:06;17.20;;;10.30;;
25667;SDS011;18003;-33.830;151.202;2023-09-19T07:31:36;21.27;;;10.40;;
25667;SDS011;18003;-33.830;151.202;2023-09-19T07:34:06;18.95;;;9.80;;
25667;SDS011;18003;-33.830;151.202;2023-09-19T07:36:38;23.30;;;10.85;;
25667;SDS011;18003;-33.830;151.202;2023-09-19T07:39:09;18.90;;;9.68;;
25667;SDS011;18003;-33.830;151.202;2023-09-19T07:41:39;18.92;;;9.55;;
25667;SDS011;18003;-33.830;151.202;2023-09-19T07:44:09;25.68;;;9.33;;
25667;SDS011;18003;-33.830;151.202;2023-09-19T07:46:39;18.82;;;9.20;;
25667;SDS011;18003;-33.830;151.202;2023-09-19T07:49:10;21.27;;;9.60;;
25667;SDS011;18003;-33.830;151.202;2023-09-19T07:51:40;22.37;;;9.70;;
25667;SDS011;18003;-33.830;151.202;2023-09-19T07:54:11;22.25;;;10.03;;
25667;SDS011;18003;-33.830;151.202;2023-09-19T07:56:42;23.73;;;9.90;;
25667;SDS011;18003;-33.830;151.202;2023-09-19T07:59:12;21.15;;;10.10;;
25667;SDS011;18003;-33.830;151.202;2023-09-19T08:01:51;20.00;;;10.00;;
25667;SDS011;18003;-33.830;151.202;2023-09-19T08:04:17;19.55;;;9.53;;
25667;SDS011;18003;-33.830;151.202;2023-09-19T08:06:47;19.25;;;10.43;;
25667;SDS011;18003;-33.830;151.202;2023-09-19T08:09:27;20.32;;;10.68;;
25667;SDS011;18003;-33.830;151.202;2023-09-19T08:11:52;22.52;;;9.73;;
25667;SDS011;18003;-33.830;151.202;2023-09-19T08:14:20;24.02;;;9.88;;
25667;SDS011;18003;-33.830;151.202;2023-09-19T08:16:54;19.00;;;10.30;;
25667;SDS011;18003;-33.830;151.202;2023-09-19T08:19:25;20.12;;;9.85;;
25667;SDS011;18003;-33.830;151.202;2023-09-19T08:21:58;20.92;;;10.50;;
25667;SDS011;18003;-33.830;151.202;2023-09-19T08:24:29;20.08;;;10.28;;
25667;SDS011;18003;-33.830;151.202;2023-09-19T08:26:59;22.48;;;9.93;;
25667;SDS011;18003;-33.830;151.202;2023-09-19T08:29:31;19.60;;;9.78;;
25667;SDS011;18003;-33.830;151.202;2023-09-19T08:32:01;20.03;;;10.53;;
25667;SDS011;18003;-33.830;151.202;2023-09-19T08:34:33;18.27;;;9.68;;
25667;SDS011;18003;-33.830;151.202;2023-09-19T08:37:04;18.20;;;9.70;;
25667;SDS011;18003;-33.830;151.202;2023-09-19T08:39:34;18.82;;;9.33;;
25667;SDS011;18003;-33.830;151.202;2023-09-19T08:42:04;17.55;;;9.73;;
25667;SDS011;18003;-33.830;151.202;2023-09-19T08:44:39;17.82;;;9.53;;
25667;SDS011;18003;-33.830;151.202;2023-09-19T08:47:10;17.55;;;10.15;;
25667;SDS011;18003;-33.830;151.202;2023-09-19T08:49:42;27.75;;;10.50;;
25667;SDS011;18003;-33.830;151.202;2023-09-19T08:52:32;26.50;;;10.45;;
25667;SDS011;18003;-33.830;151.202;2023-09-19T08:55:03;24.35;;;10.85;;
25667;SDS011;18003;-33.830;151.202;2023-09-19T08:57:36;23.00;;;9.25;;
25667;SDS011;18003;-33.830;151.202;2023-09-19T09:00:10;22.70;;;10.95;;
25667;SDS011;18003;-33.830;151.202;2023-09-19T09:02:43;25.48;;;10.85;;
25667;SDS011;18003;-33.830;151.202;2023-09-19T09:05:13;25.45;;;10.28;;
25667;SDS011;18003;-33.830;151.202;2023-09-19T09:07:45;22.55;;;10.55;;
25667;SDS011;18003;-33.830;151.202;2023-09-19T09:10:16;24.15;;;11.05;;
25667;SDS011;18003;-33.830;151.202;2023-09-19T09:12:55;22.35;;;10.75;;
25667;SDS011;18003;-33.830;151.202;2023-09-19T09:15:30;20.00;;;10.70;;
25667;SDS011;18003;-33.830;151.202;2023-09-19T09:17:58;33.75;;;11.48;;
25667;SDS011;18003;-33.830;151.202;2023-09-19T09:20:29;23.00;;;10.58;;
25667;SDS011;18003;-33.830;151.202;2023-09-19T09:22:59;25.40;;;10.93;;
25667;SDS011;18003;-33.830;151.202;2023-09-19T09:25:49;20.85;;;10.25;;
25667;SDS011;18003;-33.830;151.202;2023-09-19T09:28:23;20.88;;;9.98;;
25667;SDS011;18003;-33.830;151.202;2023-09-19T09:31:00;20.97;;;9.93;;
25667;SDS011;18003;-33.830;151.202;2023-09-19T09:33:31;21.62;;;10.53;;
25667;SDS011;18003;-33.830;151.202;2023-09-19T09:36:02;22.25;;;10.25;;
25667;SDS011;18003;-33.830;151.202;2023-09-19T09:38:45;21.40;;;10.53;;
25667;SDS011;18003;-33.830;151.202;2023-09-19T09:41:16;22.07;;;10.40;;
25667;SDS011;18003;-33.830;151.202;2023-09-19T09:43:48;23.10;;;10.23;;
25667;SDS011;18003;-33.830;151.202;2023-09-19T09:46:19;22.32;;;9.80;;
25667;SDS011;18003;-33.830;151.202;2023-09-19T09:48:57;21.45;;;9.98;;
25667;SDS011;18003;-33.830;151.202;2023-09-19T09:51:50;17.57;;;9.13;;
25667;SDS011;18003;-33.830;151.202;2023-09-19T09:54:37;21.23;;;10.32;;
25667;SDS011;18003;-33.830;151.202;2023-09-19T09:57:08;19.67;;;10.48;;
25667;SDS011;18003;-33.830;151.202;2023-09-19T10:00:04;20.72;;;9.35;;
25667;SDS011;18003;-33.830;151.202;2023-09-19T10:02:30;21.15;;;9.33;;
25667;SDS011;18003;-33.830;151.202;2023-09-19T10:05:21;22.50;;;9.73;;
25667;SDS011;18003;-33.830;151.202;2023-09-19T10:07:55;20.88;;;10.23;;
25667;SDS011;18003;-33.830;151.202;2023-09-19T10:10:33;18.70;;;10.32;;
25667;SDS011;18003;-33.830;151.202;2023-09-19T10:13:08;18.57;;;9.48;;
25667;SDS011;18003;-33.830;151.202;2023-09-19T10:15:43;22.22;;;10.18;;
25667;SDS011;18003;-33.830;151.202;2023-09-19T10:18:15;23.00;;;9.65;;
25667;SDS011;18003;-33.830;151.202;2023-09-19T10:20:54;20.92;;;9.48;;
25667;SDS011;18003;-33.830;151.202;2023-09-19T10:23:25;22.52;;;10.32;;
25667;SDS011;18003;-33.830;151.202;2023-09-19T10:25:56;24.05;;;9.63;;
25667;SDS011;18003;-33.830;151.202;2023-09-19T10:28:28;20.35;;;9.68;;
25667;SDS011;18003;-33.830;151.202;2023-09-19T10:30:58;24.02;;;10.40;;
25667;SDS011;18003;-33.830;151.202;2023-09-19T10:33:32;19.90;;;9.40;;
25667;SDS011;18003;-33.830;151.202;2023-09-19T10:36:02;19.65;;;9.80;;
25667;SDS011;18003;-33.830;151.202;2023-09-19T10:38:33;21.15;;;9.73;;
25667;SDS011;18003;-33.830;151.202;2023-09-19T10:41:06;19.60;;;9.53;;
25667;SDS011;18003;-33.830;151.202;2023-09-19T10:43:37;22.95;;;10.25;;
25667;SDS011;18003;-33.830;151.202;2023-09-19T10:46:10;20.50;;;9.90;;
25667;SDS011;18003;-33.830;151.202;2023-09-19T10:48:40;23.70;;;9.88;;
25667;SDS011;18003;-33.830;151.202;2023-09-19T10:51:19;18.95;;;9.78;;
25667;SDS011;18003;-33.830;151.202;2023-09-19T10:54:01;23.45;;;10.70;;
25667;SDS011;18003;-33.830;151.202;2023-09-19T10:56:38;21.20;;;10.23;;
25667;SDS011;18003;-33.830;151.202;2023-09-19T10:59:16;18.98;;;10.68;;
25667;SDS011;18003;-33.830;151.202;2023-09-19T11:02:33;17.27;;;10.35;;
25667;SDS011;18003;-33.830;151.202;2023-09-19T11:04:23;22.32;;;10.70;;
25667;SDS011;18003;-33.830;151.202;2023-09-19T11:07:03;20.43;;;9.95;;
25667;SDS011;18003;-33.830;151.202;2023-09-19T11:10:43;18.37;;;10.80;;
25667;SDS011;18003;-33.830;151.202;2023-09-19T11:15:05;21.02;;;9.93;;
25667;SDS011;18003;-33.830;151.202;2023-09-19T11:17:42;22.32;;;9.85;;
25667;SDS011;18003;-33.830;151.202;2023-09-19T11:30:41;19.00;;;10.03;;
25667;SDS011;18003;-33.830;151.202;2023-09-19T11:46:33;17.48;;;9.50;;
25667;SDS011;18003;-33.830;151.202;2023-09-19T11:49:08;16.23;;;9.20;;
25667;SDS011;18003;-33.830;151.202;2023-09-19T11:51:42;18.55;;;10.03;;
25667;SDS011;18003;-33.830;151.202;2023-09-19T11:54:12;19.52;;;9.48;;
25667;SDS011;18003;-33.830;151.202;2023-09-19T11:56:48;15.90;;;9.63;;
25667;SDS011;18003;-33.830;151.202;2023-09-19T11:59:26;16.57;;;10.10;;
25667;SDS011;18003;-33.830;151.202;2023-09-19T12:01:53;16.60;;;10.23;;
25667;SDS011;18003;-33.830;151.202;2023-09-19T12:04:37;16.67;;;9.43;;
25667;SDS011;18003;-33.830;151.202;2023-09-19T12:07:06;19.45;;;9.35;;
25667;SDS011;18003;-33.830;151.202;2023-09-19T12:09:41;17.17;;;9.33;;
25667;SDS011;18003;-33.830;151.202;2023-09-19T12:12:23;17.07;;;9.63;;
25667;SDS011;18003;-33.830;151.202;2023-09-19T12:14:56;16.37;;;9.28;;
25667;SDS011;18003;-33.830;151.202;2023-09-19T12:17:47;16.35;;;9.10;;
25667;SDS011;18003;-33.830;151.202;2023-09-19T12:22:47;14.80;;;8.68;;
25667;SDS011;18003;-33.830;151.202;2023-09-19T12:25:18;11.43;;;8.18;;
25667;SDS011;18003;-33.830;151.202;2023-09-19T12:27:48;16.05;;;8.50;;
25667;SDS011;18003;-33.830;151.202;2023-09-19T12:30:20;15.70;;;8.88;;
25667;SDS011;18003;-33.830;151.202;2023-09-19T12:32:53;25.72;;;8.85;;
25667;SDS011;18003;-33.830;151.202;2023-09-19T12:35:27;15.55;;;8.53;;
25667;SDS011;18003;-33.830;151.202;2023-09-19T12:38:03;13.25;;;8.35;;
25667;SDS011;18003;-33.830;151.202;2023-09-19T12:40:34;15.30;;;8.20;;
25667;SDS011;18003;-33.830;151.202;2023-09-19T12:43:05;11.78;;;8.60;;
25667;SDS011;18003;-33.830;151.202;2023-09-19T12:45:35;12.23;;;8.40;;
25667;SDS011;18003;-33.830;151.202;2023-09-19T12:48:24;13.45;;;8.58;;
25667;SDS011;18003;-33.830;151.202;2023-09-19T12:51:10;12.40;;;8.60;;
25667;SDS011;18003;-33.830;151.202;2023-09-19T12:53:45;14.33;;;8.30;;
25667;SDS011;18003;-33.830;151.202;2023-09-19T12:56:17;10.80;;;8.13;;
25667;SDS011;18003;-33.830;151.202;2023-09-19T13:01:28;11.55;;;8.80;;
25667;SDS011;18003;-33.830;151.202;2023-09-19T13:06:53;9.98;;;7.78;;
25667;SDS011;18003;-33.830;151.202;2023-09-19T13:09:21;10.13;;;8.15;;
25667;SDS011;18003;-33.830;151.202;2023-09-19T13:14:24;10.05;;;7.50;;
25667;SDS011;18003;-33.830;151.202;2023-09-19T13:17:10;8.55;;;7.42;;
25667;SDS011;18003;-33.830;151.202;2023-09-19T13:19:43;8.20;;;7.40;;
25667;SDS011;18003;-33.830;151.202;2023-09-19T13:25:14;8.40;;;7.40;;
25667;SDS011;18003;-33.830;151.202;2023-09-19T13:27:45;8.75;;;7.90;;
25667;SDS011;18003;-33.830;151.202;2023-09-19T13:30:17;7.95;;;7.22;;
25667;SDS011;18003;-33.830;151.202;2023-09-19T13:32:48;8.83;;;7.90;;
25667;SDS011;18003;-33.830;151.202;2023-09-19T13:35:19;8.18;;;7.35;;
25667;SDS011;18003;-33.830;151.202;2023-09-19T13:37:49;7.83;;;7.15;;
25667;SDS011;18003;-33.830;151.202;2023-09-19T13:40:21;9.93;;;7.03;;
25667;SDS011;18003;-33.830;151.202;2023-09-19T13:42:53;7.78;;;7.03;;
25667;SDS011;18003;-33.830;151.202;2023-09-19T13:45:23;7.80;;;7.10;;
25667;SDS011;18003;-33.830;151.202;2023-09-19T13:47:54;7.50;;;6.90;;
25667;SDS011;18003;-33.830;151.202;2023-09-19T13:50:28;7.42;;;6.72;;
25667;SDS011;18003;-33.830;151.202;2023-09-19T13:52:58;8.15;;;6.95;;
25667;SDS011;18003;-33.830;151.202;2023-09-19T13:55:29;7.40;;;6.65;;
25667;SDS011;18003;-33.830;151.202;2023-09-19T13:58:05;8.20;;;7.40;;
25667;SDS011;18003;-33.830;151.202;2023-09-19T14:00:31;8.08;;;7.37;;
25667;SDS011;18003;-33.830;151.202;2023-09-19T14:03:08;7.85;;;7.15;;
25667;SDS011;18003;-33.830;151.202;2023-09-19T14:05:38;8.45;;;7.08;;
25667;SDS011;18003;-33.830;151.202;2023-09-19T14:08:09;9.35;;;7.25;;
25667;SDS011;18003;-33.830;151.202;2023-09-19T14:10:41;8.05;;;7.25;;
25667;SDS011;18003;-33.830;151.202;2023-09-19T14:13:11;7.47;;;6.87;;
25667;SDS011;18003;-33.830;151.202;2023-09-19T14:15:42;7.92;;;6.70;;
25667;SDS011;18003;-33.830;151.202;2023-09-19T14:18:12;7.37;;;6.75;;
25667;SDS011;18003;-33.830;151.202;2023-09-19T14:20:48;7.65;;;6.90;;
25667;SDS011;18003;-33.830;151.202;2023-09-19T14:23:19;7.15;;;6.55;;
25667;SDS011;18003;-33.830;151.202;2023-09-19T14:25:55;7.12;;;6.42;;
25667;SDS011;18003;-33.830;151.202;2023-09-19T14:28:20;6.90;;;6.30;;
25667;SDS011;18003;-33.830;151.202;2023-09-19T14:30:51;6.55;;;6.03;;
25667;SDS011;18003;-33.830;151.202;2023-09-19T14:33:22;6.62;;;6.12;;
25667;SDS011;18003;-33.830;151.202;2023-09-19T14:35:52;6.75;;;6.22;;
25667;SDS011;18003;-33.830;151.202;2023-09-19T14:38:25;6.78;;;6.25;;
25667;SDS011;18003;-33.830;151.202;2023-09-19T14:41:01;6.45;;;5.87;;
25667;SDS011;18003;-33.830;151.202;2023-09-19T14:43:31;6.90;;;6.30;;
25667;SDS011;18003;-33.830;151.202;2023-09-19T14:46:04;10.85;;;6.10;;
25667;SDS011;18003;-33.830;151.202;2023-09-19T14:48:36;7.62;;;6.80;;
25667;SDS011;18003;-33.830;151.202;2023-09-19T14:51:07;6.85;;;6.15;;
25667;SDS011;18003;-33.830;151.202;2023-09-19T14:53:38;7.53;;;6.75;;
25667;SDS011;18003;-33.830;151.202;2023-09-19T14:56:09;7.53;;;6.83;;
25667;SDS011;18003;-33.830;151.202;2023-09-19T14:58:40;7.65;;;7.00;;
25667;SDS011;18003;-33.830;151.202;2023-09-19T15:01:11;7.85;;;6.80;;
25667;SDS011;18003;-33.830;151.202;2023-09-19T15:03:44;7.30;;;6.60;;
25667;SDS011;18003;-33.830;151.202;2023-09-19T15:06:13;7.15;;;6.55;;
25667;SDS011;18003;-33.830;151.202;2023-09-19T15:08:47;8.25;;;7.55;;
25667;SDS011;18003;-33.830;151.202;2023-09-19T15:11:17;7.62;;;7.03;;
25667;SDS011;18003;-33.830;151.202;2023-09-19T15:13:47;7.53;;;6.92;;
25667;SDS011;18003;-33.830;151.202;2023-09-19T15:16:18;6.75;;;6.25;;
25667;SDS011;18003;-33.830;151.202;2023-09-19T15:18:48;7.45;;;6.85;;
25667;SDS011;18003;-33.830;151.202;2023-09-19T15:21:18;6.80;;;6.30;;